Marilyn M — WDH6367 — position and weather

sailwx.info

Track history (hours):
 
Tides and Currents Weather Stations Pressure Air Temp Water Temp Dewpoint Dewpoint Depression Visibility Wind Speed Wind Dir Waves Ship Positions

Marilyn M

Owner: Offshore Oil Services Inc., Clute, TX. More information available from US FCC via Universal Licensing System and Coast Guard Vessel Documentation Center.

Last reported at 2017-Sep-24 06:55 UTC. Time now 2017-Sep-24 19:19 UTC.
Position N 29°41' W 092°15'.

Length 45 m; draft 3 m.

Type: Passenger vessel. MMSI: 367637210.

Date/timePositionNaut miles runAvg speedWind from/ knotsBaromVisibWave heightAir tempDewpointWater temp
2017-Sep-24 06:55N 29°41' W 092°15'4 9.1
2017-Sep-24 06:31N 29°44' W 092°14'5 9.1
2017-Sep-24 06:01N 29°47' W 092°10'1 1.9
2017-Sep-24 05:31N 29°47' W 092°09'0 0.0
2017-Sep-24 05:01N 29°47' W 092°09'0 0.0
2017-Sep-24 04:30N 29°47' W 092°09'0 0.0
2017-Sep-24 04:01N 29°47' W 092°09'1 1.9
2017-Sep-24 03:30N 29°47' W 092°10'5 9.8
2017-Sep-24 03:00N 29°44' W 092°14'5 9.3
2017-Sep-24 02:31N 29°40' W 092°16'1 0.2
2017-Sep-23 19:49N 29°41' W 092°15'9 0.2
2017-Sep-22 02:01N 29°47' W 092°09'0 0.0
2017-Sep-22 01:31N 29°47' W 092°09'2 4.0
2017-Sep-22 01:01N 29°47' W 092°11'0 0.1
2017-Sep-22 00:31N 29°47' W 092°11'0 0.0
2017-Sep-22 00:01N 29°47' W 092°11'0 0.0
2017-Sep-21 23:31N 29°47' W 092°11'0 0.0
2017-Sep-21 23:01N 29°47' W 092°11'0 0.0
2017-Sep-21 22:30N 29°47' W 092°11'0 0.0
2017-Sep-21 22:01N 29°47' W 092°11'1 1.2
2017-Sep-21 21:30N 29°47' W 092°10'2 3.2
2017-Sep-21 21:01N 29°47' W 092°09'0 0.0
2017-Sep-21 20:31N 29°47' W 092°09'0 0.0
2017-Sep-21 20:00N 29°47' W 092°09'3 4.7
2017-Sep-21 19:27N 29°46' W 092°11'4 9.6
2017-Sep-21 19:01N 29°43' W 092°15'610.6
2017-Sep-21 18:28N 29°37' W 092°16'2 0.3
2017-Sep-21 13:17N 29°39' W 092°16'410.0
2017-Sep-21 12:52N 29°43' W 092°15'3 9.6
2017-Sep-21 12:30N 29°45' W 092°12'3 6.7
2017-Sep-21 12:00N 29°47' W 092°09'0 0.0
2017-Sep-21 11:30N 29°47' W 092°09'0 0.0
2017-Sep-21 11:00N 29°47' W 092°09'0 0.0
2017-Sep-21 10:30N 29°47' W 092°09'0 0.0
2017-Sep-21 10:01N 29°47' W 092°09'0 0.0
2017-Sep-21 09:30N 29°47' W 092°09'0 0.0
2017-Sep-21 09:00N 29°47' W 092°09'0 0.1
2017-Sep-21 08:30N 29°47' W 092°09'4 9.0
2017-Sep-21 08:00N 29°45' W 092°13'510.1
2017-Sep-21 07:30N 29°40' W 092°15'0 0.0
2017-Sep-20 06:56N 29°41' W 092°15'4 9.0
2017-Sep-20 06:30N 29°44' W 092°14'6 0.9
2017-Sep-20 00:22N 29°47' W 092°09'0 0.0
2017-Sep-20 00:01N 29°47' W 092°09'0 0.0
2017-Sep-19 23:30N 29°47' W 092°09'0 0.0
2017-Sep-19 23:01N 29°47' W 092°09'0 0.0
2017-Sep-19 22:30N 29°47' W 092°09'2 4.2
2017-Sep-19 22:01N 29°46' W 092°11'5 9.4
2017-Sep-19 21:30N 29°43' W 092°15'610.0
2017-Sep-19 20:55N 29°37' W 092°16'3 0.2
2017-Sep-19 05:59N 29°40' W 092°15'4 9.2
2017-Sep-19 05:30N 29°45' W 092°13'4 8.1
2017-Sep-19 05:00N 29°47' W 092°10'1 1.1
2017-Sep-19 04:09N 29°47' W 092°09'0 0.0
2017-Sep-19 04:00N 29°47' W 092°09'0 0.0
2017-Sep-19 03:31N 29°47' W 092°09'1 2.2
2017-Sep-19 03:01N 29°47' W 092°10'510.3
2017-Sep-19 02:31N 29°44' W 092°15'510.3
2017-Sep-19 02:00N 29°39' W 092°16'4 0.5
2017-Sep-18 18:49N 29°42' W 092°15'3 8.3
2017-Sep-18 18:30N 29°45' W 092°13'4 9.1
2017-Sep-18 18:00N 29°47' W 092°09'0 0.7
2017-Sep-18 17:30N 29°47' W 092°09'0 0.0
2017-Sep-18 17:00N 29°47' W 092°09'0 0.0
2017-Sep-18 16:30N 29°47' W 092°09'0 0.0
2017-Sep-18 16:00N 29°47' W 092°09'0 0.0
2017-Sep-18 15:30N 29°47' W 092°09'0 0.0
2017-Sep-18 15:00N 29°47' W 092°09'0 0.0
2017-Sep-18 14:30N 29°47' W 092°09'0 0.0
2017-Sep-18 14:00N 29°47' W 092°09'0 0.0
2017-Sep-18 13:30N 29°47' W 092°09'0 0.0
2017-Sep-18 13:00N 29°47' W 092°09'1 2.0
2017-Sep-18 12:30N 29°47' W 092°10'1 2.1
2017-Sep-18 12:00N 29°47' W 092°11'0 0.0
2017-Sep-18 07:46N 29°47' W 092°11'0 0.0
2017-Sep-18 07:30N 29°47' W 092°11'0 0.0
2017-Sep-18 07:00N 29°47' W 092°11'0 0.0
2017-Sep-18 06:30N 29°47' W 092°11'0 0.0
2017-Sep-18 06:00N 29°47' W 092°11'0 0.0
2017-Sep-18 05:30N 29°47' W 092°11'0 0.0
2017-Sep-18 05:00N 29°47' W 092°11'2 4.1
2017-Sep-18 04:30N 29°47' W 092°09'0 0.0
2017-Sep-18 04:00N 29°47' W 092°09'1 2.0
2017-Sep-18 03:30N 29°47' W 092°10'510.1
2017-Sep-18 03:00N 29°44' W 092°14'510.3
2017-Sep-18 02:29N 29°39' W 092°16'5 0.2
2017-Sep-17 03:49N 29°43' W 092°15'3 9.1
2017-Sep-17 03:30N 29°45' W 092°12'4 7.6
2017-Sep-17 03:00N 29°47' W 092°09'2 4.0
2017-Sep-17 02:30N 29°47' W 092°11'0 0.0
2017-Sep-17 02:01N 29°47' W 092°11'0 0.0
2017-Sep-17 01:31N 29°47' W 092°11'1 2.6
2017-Sep-17 01:00N 29°47' W 092°09'1 1.5
2017-Sep-17 00:31N 29°47' W 092°09'0 0.0
2017-Sep-17 00:00N 29°47' W 092°09'0 0.0
2017-Sep-16 23:31N 29°47' W 092°09'0 0.0
2017-Sep-16 23:01N 29°47' W 092°09'0 0.0
2017-Sep-16 22:31N 29°47' W 092°09'0 0.0
2017-Sep-16 22:00N 29°47' W 092°09'0 0.0
2017-Sep-16 21:31N 29°47' W 092°09'0 0.0
2017-Sep-16 21:01N 29°47' W 092°09'0 0.0
2017-Sep-16 20:31N 29°47' W 092°09'1 2.7
2017-Sep-16 20:00N 29°47' W 092°10'5 9.9
2017-Sep-16 19:31N 29°44' W 092°15'510.0
2017-Sep-16 19:00N 29°39' W 092°16'5 0.6
2017-Sep-16 11:38N 29°43' W 092°15'1 9.9
2017-Sep-16 11:30N 29°44' W 092°14'4 7.1
2017-Sep-16 11:00N 29°47' W 092°11'0 0.0
2017-Sep-16 10:30N 29°47' W 092°11'0 0.0
2017-Sep-16 10:00N 29°47' W 092°11'0 0.0
2017-Sep-16 09:30N 29°47' W 092°11'2 4.2
2017-Sep-16 09:00N 29°47' W 092°09'0 0.0
2017-Sep-16 08:30N 29°47' W 092°09'0 0.0
2017-Sep-16 08:00N 29°47' W 092°09'1 1.4
2017-Sep-16 07:30N 29°47' W 092°09'5 9.9
2017-Sep-16 07:00N 29°44' W 092°14'  
Track history (hours):
 
Tides and Currents Weather Stations Pressure Air Temp Water Temp Dewpoint Dewpoint Depression Visibility Wind Speed Wind Dir Waves Ship Positions

Marilyn M

Owner: Offshore Oil Services Inc., Clute, TX. More information available from US FCC via Universal Licensing System and Coast Guard Vessel Documentation Center.

Last reported at 2017-Sep-24 06:55 UTC. Time now 2017-Sep-24 19:19 UTC.
Position N 29°41' W 092°15'.

Length 45 m; draft 3 m.

Type: Passenger vessel. MMSI: 367637210.

Date/timePositionNaut miles runAvg speedWind from/ knotsBaromVisibWave heightAir tempDewpointWater temp
2017-Sep-24 06:55N 29°41' W 092°15'4 9.1
2017-Sep-24 06:31N 29°44' W 092°14'5 9.1
2017-Sep-24 06:01N 29°47' W 092°10'1 1.9
2017-Sep-24 05:31N 29°47' W 092°09'0 0.0
2017-Sep-24 05:01N 29°47' W 092°09'0 0.0
2017-Sep-24 04:30N 29°47' W 092°09'0 0.0
2017-Sep-24 04:01N 29°47' W 092°09'1 1.9
2017-Sep-24 03:30N 29°47' W 092°10'5 9.8
2017-Sep-24 03:00N 29°44' W 092°14'5 9.3
2017-Sep-24 02:31N 29°40' W 092°16'1 0.2
2017-Sep-23 19:49N 29°41' W 092°15'9 0.2
2017-Sep-22 02:01N 29°47' W 092°09'0 0.0
2017-Sep-22 01:31N 29°47' W 092°09'2 4.0
2017-Sep-22 01:01N 29°47' W 092°11'0 0.1
2017-Sep-22 00:31N 29°47' W 092°11'0 0.0
2017-Sep-22 00:01N 29°47' W 092°11'0 0.0
2017-Sep-21 23:31N 29°47' W 092°11'0 0.0
2017-Sep-21 23:01N 29°47' W 092°11'0 0.0
2017-Sep-21 22:30N 29°47' W 092°11'0 0.0
2017-Sep-21 22:01N 29°47' W 092°11'1 1.2
2017-Sep-21 21:30N 29°47' W 092°10'2 3.2
2017-Sep-21 21:01N 29°47' W 092°09'0 0.0
2017-Sep-21 20:31N 29°47' W 092°09'0 0.0
2017-Sep-21 20:00N 29°47' W 092°09'3 4.7
2017-Sep-21 19:27N 29°46' W 092°11'4 9.6
2017-Sep-21 19:01N 29°43' W 092°15'610.6
2017-Sep-21 18:28N 29°37' W 092°16'2 0.3
2017-Sep-21 13:17N 29°39' W 092°16'410.0
2017-Sep-21 12:52N 29°43' W 092°15'3 9.6
2017-Sep-21 12:30N 29°45' W 092°12'3 6.7
2017-Sep-21 12:00N 29°47' W 092°09'0 0.0
2017-Sep-21 11:30N 29°47' W 092°09'0 0.0
2017-Sep-21 11:00N 29°47' W 092°09'0 0.0
2017-Sep-21 10:30N 29°47' W 092°09'0 0.0
2017-Sep-21 10:01N 29°47' W 092°09'0 0.0
2017-Sep-21 09:30N 29°47' W 092°09'0 0.0
2017-Sep-21 09:00N 29°47' W 092°09'0 0.1
2017-Sep-21 08:30N 29°47' W 092°09'4 9.0
2017-Sep-21 08:00N 29°45' W 092°13'510.1
2017-Sep-21 07:30N 29°40' W 092°15'0 0.0
2017-Sep-20 06:56N 29°41' W 092°15'4 9.0
2017-Sep-20 06:30N 29°44' W 092°14'6 0.9
2017-Sep-20 00:22N 29°47' W 092°09'0 0.0
2017-Sep-20 00:01N 29°47' W 092°09'0 0.0
2017-Sep-19 23:30N 29°47' W 092°09'0 0.0
2017-Sep-19 23:01N 29°47' W 092°09'0 0.0
2017-Sep-19 22:30N 29°47' W 092°09'2 4.2
2017-Sep-19 22:01N 29°46' W 092°11'5 9.4
2017-Sep-19 21:30N 29°43' W 092°15'610.0
2017-Sep-19 20:55N 29°37' W 092°16'3 0.2
2017-Sep-19 05:59N 29°40' W 092°15'4 9.2
2017-Sep-19 05:30N 29°45' W 092°13'4 8.1
2017-Sep-19 05:00N 29°47' W 092°10'1 1.1
2017-Sep-19 04:09N 29°47' W 092°09'0 0.0
2017-Sep-19 04:00N 29°47' W 092°09'0 0.0
2017-Sep-19 03:31N 29°47' W 092°09'1 2.2
2017-Sep-19 03:01N 29°47' W 092°10'510.3
2017-Sep-19 02:31N 29°44' W 092°15'510.3
2017-Sep-19 02:00N 29°39' W 092°16'4 0.5
2017-Sep-18 18:49N 29°42' W 092°15'3 8.3
2017-Sep-18 18:30N 29°45' W 092°13'4 9.1
2017-Sep-18 18:00N 29°47' W 092°09'0 0.7
2017-Sep-18 17:30N 29°47' W 092°09'0 0.0
2017-Sep-18 17:00N 29°47' W 092°09'0 0.0
2017-Sep-18 16:30N 29°47' W 092°09'0 0.0
2017-Sep-18 16:00N 29°47' W 092°09'0 0.0
2017-Sep-18 15:30N 29°47' W 092°09'0 0.0
2017-Sep-18 15:00N 29°47' W 092°09'0 0.0
2017-Sep-18 14:30N 29°47' W 092°09'0 0.0
2017-Sep-18 14:00N 29°47' W 092°09'0 0.0
2017-Sep-18 13:30N 29°47' W 092°09'0 0.0
2017-Sep-18 13:00N 29°47' W 092°09'1 2.0
2017-Sep-18 12:30N 29°47' W 092°10'1 2.1
2017-Sep-18 12:00N 29°47' W 092°11'0 0.0
2017-Sep-18 07:46N 29°47' W 092°11'0 0.0
2017-Sep-18 07:30N 29°47' W 092°11'0 0.0
2017-Sep-18 07:00N 29°47' W 092°11'0 0.0
2017-Sep-18 06:30N 29°47' W 092°11'0 0.0
2017-Sep-18 06:00N 29°47' W 092°11'0 0.0
2017-Sep-18 05:30N 29°47' W 092°11'0 0.0
2017-Sep-18 05:00N 29°47' W 092°11'2 4.1
2017-Sep-18 04:30N 29°47' W 092°09'0 0.0
2017-Sep-18 04:00N 29°47' W 092°09'1 2.0
2017-Sep-18 03:30N 29°47' W 092°10'510.1
2017-Sep-18 03:00N 29°44' W 092°14'510.3
2017-Sep-18 02:29N 29°39' W 092°16'5 0.2
2017-Sep-17 03:49N 29°43' W 092°15'3 9.1
2017-Sep-17 03:30N 29°45' W 092°12'4 7.6
2017-Sep-17 03:00N 29°47' W 092°09'2 4.0
2017-Sep-17 02:30N 29°47' W 092°11'0 0.0
2017-Sep-17 02:01N 29°47' W 092°11'0 0.0
2017-Sep-17 01:31N 29°47' W 092°11'1 2.6
2017-Sep-17 01:00N 29°47' W 092°09'1 1.5
2017-Sep-17 00:31N 29°47' W 092°09'0 0.0
2017-Sep-17 00:00N 29°47' W 092°09'0 0.0
2017-Sep-16 23:31N 29°47' W 092°09'0 0.0
2017-Sep-16 23:01N 29°47' W 092°09'0 0.0
2017-Sep-16 22:31N 29°47' W 092°09'0 0.0
2017-Sep-16 22:00N 29°47' W 092°09'0 0.0
2017-Sep-16 21:31N 29°47' W 092°09'0 0.0
2017-Sep-16 21:01N 29°47' W 092°09'0 0.0
2017-Sep-16 20:31N 29°47' W 092°09'1 2.7
2017-Sep-16 20:00N 29°47' W 092°10'5 9.9
2017-Sep-16 19:31N 29°44' W 092°15'510.0
2017-Sep-16 19:00N 29°39' W 092°16'5 0.6
2017-Sep-16 11:38N 29°43' W 092°15'1 9.9
2017-Sep-16 11:30N 29°44' W 092°14'4 7.1
2017-Sep-16 11:00N 29°47' W 092°11'0 0.0
2017-Sep-16 10:30N 29°47' W 092°11'0 0.0
2017-Sep-16 10:00N 29°47' W 092°11'0 0.0
2017-Sep-16 09:30N 29°47' W 092°11'2 4.2
2017-Sep-16 09:00N 29°47' W 092°09'0 0.0
2017-Sep-16 08:30N 29°47' W 092°09'0 0.0
2017-Sep-16 08:00N 29°47' W 092°09'1 1.4
2017-Sep-16 07:30N 29°47' W 092°09'5 9.9
2017-Sep-16 07:00N 29°44' W 092°14'  

Dump ship's entire track history